Time;durP1;ratioP1;P1;durP2;ratioP2;P2;SDS_P1;SDS_P2;PMS_P1;PMS_P2;Temp;Humidity;BMP_temperature;BMP_pressure;BME280_temperature;BME280_humidity;BME280_pressure;Samples;Min_cycle;Max_cycle;Signal;HPM_P1;HPM_P2
2022/04/13 00:00:17;;;;;;;6.03;2.58;;;14.20;99.90;;;14.55;67.26;100568.31;5227531;28;20051;-68
2022/04/13 00:02:49;;;;;;;6.72;3.03;;;14.10;99.90;;;14.51;67.38;100563.88;5227706;28;20083;-68
2022/04/13 00:05:21;;;;;;;6.13;3.00;;;14.10;99.90;;;14.46;67.62;100566.41;5228231;28;20482;-68
2022/04/13 00:07:56;;;;;;;5.15;2.78;;;14.10;99.90;;;14.41;67.94;100565.47;5227868;28;20398;-67
2022/04/13 00:10:28;;;;;;;;;;;14.10;99.90;;;14.35;68.74;100566.25;5227990;28;20067;-69
2022/04/13 00:13:00;;;;;;;7.18;3.30;;;14.00;99.90;;;14.32;68.59;100573.16;5226735;28;19931;-67
2022/04/13 00:15:32;;;;;;;4.70;2.60;;;13.90;99.90;;;14.27;68.70;100567.84;5228076;28;20045;-68
2022/04/13 00:18:06;;;;;;;6.15;3.22;;;13.90;99.90;;;14.26;68.11;100560.84;5228069;28;20144;-68
2022/04/13 00:20:38;;;;;;;5.55;2.67;;;13.90;99.90;;;14.29;68.05;100555.66;5227671;28;20478;-68
2022/04/13 00:23:12;;;;;;;6.60;2.70;;;13.90;99.90;;;14.29;68.00;100555.66;5227033;28;20045;-68
2022/04/13 00:25:44;;;;;;;5.93;2.55;;;14.00;99.90;;;14.28;67.87;100567.00;5227379;28;20059;-68
2022/04/13 00:28:16;;;;;;;5.25;2.92;;;13.90;99.90;;;14.29;67.88;100566.13;5227035;28;20559;-68
2022/04/13 00:30:48;;;;;;;4.72;2.90;;;13.90;99.90;;;14.34;67.41;100567.09;5226505;28;20053;-68
2022/04/13 00:33:20;;;;;;;5.75;2.70;;;14.00;99.90;;;14.37;67.27;100568.88;5227260;28;20393;-68
2022/04/13 00:35:54;;;;;;;5.63;2.78;;;14.00;99.90;;;14.38;67.18;100566.28;5227634;28;20409;-68
2022/04/13 00:38:28;;;;;;;3.80;2.65;;;14.00;99.90;;;14.33;67.58;100567.94;5227642;28;20489;-68
2022/04/13 00:41:00;;;;;;;5.50;2.80;;;14.00;99.90;;;14.27;67.65;100567.84;5227518;28;20408;-68
2022/04/13 00:43:32;;;;;;;4.07;2.50;;;14.00;99.90;;;14.24;68.36;100580.91;5226926;28;20060;-69
2022/04/13 00:46:04;;;;;;;4.28;2.60;;;13.90;99.90;;;14.19;68.89;100577.31;5227554;28;20055;-68
2022/04/13 00:48:39;;;;;;;6.43;2.75;;;13.90;99.90;;;14.13;69.10;100585.09;5227336;28;20048;-68
2022/04/13 00:51:12;;;;;;;4.72;2.63;;;13.80;99.90;;;14.07;69.42;100582.34;5227171;28;20102;-68
2022/04/13 00:53:46;;;;;;;6.03;2.65;;;13.80;99.90;;;14.03;69.70;100580.56;5226864;28;20056;-67
2022/04/13 00:56:23;;;;;;;4.43;2.88;;;13.70;99.90;;;13.96;70.56;100581.31;5227357;28;20053;-68
2022/04/13 00:59:01;;;;;;;4.45;2.88;;;13.60;99.90;;;13.89;70.69;100584.63;5227475;28;20557;-68
2022/04/13 01:01:36;;;;;;;4.05;2.58;;;13.60;99.90;;;13.84;71.04;100576.72;5226987;28;20478;-67
2022/04/13 01:04:12;;;;;;;5.65;2.70;;;13.50;99.90;;;13.79;71.19;100574.00;5227263;28;20413;-68
2022/04/13 01:06:45;;;;;;;4.88;2.83;;;13.50;99.90;;;13.75;71.73;100571.28;5227143;28;20186;-68
2022/04/13 01:09:20;;;;;;;5.97;2.60;;;13.40;99.90;;;13.72;72.06;100580.00;5226556;28;20053;-69
2022/04/13 01:11:52;;;;;;;4.20;2.50;;;13.40;99.90;;;13.71;72.30;100591.31;5226715;28;20052;-68
2022/04/13 01:14:24;;;;;;;5.82;2.85;;;13.40;99.90;;;13.70;72.51;100592.19;5226766;28;20516;-68
2022/04/13 01:16:57;;;;;;;6.18;2.30;;;13.40;99.90;;;13.68;72.34;100596.50;5227162;28;20053;-68
2022/04/13 01:19:29;;;;;;;4.05;2.53;;;13.30;99.90;;;13.64;72.59;100594.69;5226494;28;20061;-67
2022/04/13 01:22:18;;;;;;;6.00;2.60;;;13.30;99.90;;;13.60;73.01;100598.09;5226548;28;20049;-68
2022/04/13 01:24:50;;;;;;;5.68;2.65;;;13.30;99.90;;;13.63;73.07;100605.13;5226950;28;20051;-68
2022/04/13 01:27:22;;;;;;;4.50;2.40;;;13.30;99.90;;;13.63;73.09;100608.66;5226595;28;20405;-68
2022/04/13 01:29:55;;;;;;;4.35;2.55;;;13.30;99.90;;;13.62;73.21;100612.09;5226393;28;20052;-68
2022/04/13 01:32:27;;;;;;;6.75;2.80;;;13.30;99.90;;;13.61;73.43;100610.31;5226197;28;20052;-67
2022/04/13 01:34:59;;;;;;;5.20;2.85;;;13.30;99.90;;;13.64;73.47;100617.38;5226433;28;20136;-68
2022/04/13 01:37:32;;;;;;;4.07;2.45;;;13.30;99.90;;;13.65;72.86;100617.41;5226537;28;20099;-67
2022/04/13 01:40:06;;;;;;;5.80;2.60;;;13.30;99.90;;;13.68;72.55;100616.56;5226231;28;20057;-68
2022/04/13 01:42:38;;;;;;;5.47;2.33;;;13.30;99.90;;;13.69;72.58;100613.09;5224549;28;20059;-68
2022/04/13 01:45:11;;;;;;;3.55;2.33;;;13.30;99.90;;;13.68;72.43;100620.06;5226244;28;20524;-68
2022/04/13 01:47:43;;;;;;;4.60;2.42;;;13.30;99.90;;;13.68;72.85;100622.69;5226366;28;20405;-68
2022/04/13 01:50:16;;;;;;;4.50;2.42;;;13.40;99.90;;;13.63;72.63;100618.22;5225970;28;20049;-69
2022/04/13 01:52:50;;;;;;;5.63;2.70;;;13.30;99.90;;;13.61;73.22;100619.94;5225265;28;20087;-68
2022/04/13 01:55:22;;;;;;;5.20;2.42;;;13.30;99.90;;;13.59;73.61;100619.91;5226058;28;20132;-68
2022/04/13 01:57:54;;;;;;;4.25;2.50;;;13.30;99.90;;;13.59;73.21;100619.91;5225912;28;20061;-68
2022/04/13 02:00:26;;;;;;;3.53;2.17;;;13.30;99.90;;;13.60;73.26;100629.53;5226632;28;20405;-69
2022/04/13 02:02:58;;;;;;;4.93;2.80;;;13.30;99.90;;;13.58;72.90;100619.03;5225500;28;20052;-68
2022/04/13 02:05:31;;;;;;;3.60;2.80;;;13.30;99.90;;;13.56;73.47;100622.44;5225366;28;20136;-67
2022/04/13 02:08:05;;;;;;;6.05;2.72;;;13.20;99.90;;;13.52;73.87;100624.13;5225762;28;20512;-68
2022/04/13 02:10:37;;;;;;;4.65;2.78;;;13.20;99.90;;;13.51;74.15;100626.72;5225598;28;20051;-68
2022/04/13 02:13:09;;;;;;;4.28;2.70;;;13.20;99.90;;;13.47;74.00;100622.28;5225095;28;20051;-68
2022/04/13 02:15:41;;;;;;;5.47;2.30;;;13.20;99.90;;;13.44;74.52;100632.69;5225897;28;20048;-69
2022/04/13 02:18:13;;;;;;;4.15;2.63;;;13.10;99.90;;;13.41;74.76;100622.13;5225993;28;20049;-69
2022/04/13 02:20:45;;;;;;;3.97;2.30;;;13.10;99.90;;;13.38;74.94;100628.22;5225610;28;20048;-67
2022/04/13 02:23:18;;;;;;;5.50;2.67;;;13.10;99.90;;;13.35;74.86;100633.38;5225121;28;20055;-68
2022/04/13 02:25:50;;;;;;;3.72;2.28;;;13.00;99.90;;;13.30;75.07;100630.69;5225718;28;20494;-68
2022/04/13 02:28:22;;;;;;;5.22;2.50;;;13.00;99.90;;;13.27;75.05;100630.59;5225980;28;20110;-68
2022/04/13 02:30:54;;;;;;;3.65;2.50;;;13.00;99.90;;;13.22;75.33;100632.22;5225394;28;20489;-67
2022/04/13 02:33:26;;;;;;;3.75;2.78;;;12.90;99.90;;;13.17;75.43;100639.09;5225028;28;20049;-69
2022/04/13 02:35:59;;;;;;;6.00;2.90;;;12.90;99.90;;;13.11;75.21;100638.06;5225707;28;20056;-68
2022/04/13 02:38:32;;;;;;;4.78;2.70;;;12.80;99.90;;;13.05;75.44;100646.66;5225614;28;20060;-67
2022/04/13 02:41:05;;;;;;;5.65;2.78;;;12.80;99.90;;;13.00;75.54;100650.91;5224841;28;20055;-68
2022/04/13 02:43:37;;;;;;;3.60;2.40;;;12.70;99.90;;;12.94;75.84;100645.53;5225149;28;20056;-68
2022/04/13 02:46:09;;;;;;;5.13;2.53;;;12.70;99.90;;;12.89;76.28;100655.00;5225185;28;20048;-69
2022/04/13 02:48:41;;;;;;;5.63;2.65;;;12.60;99.90;;;12.84;76.49;100659.22;5225020;28;20045;-68
2022/04/13 02:51:13;;;;;;;4.38;2.45;;;12.60;99.90;;;12.79;76.73;100660.88;5224981;28;20371;-69
2022/04/13 02:53:46;;;;;;;6.13;2.88;;;12.50;99.90;;;12.74;76.66;100663.38;5227273;28;20052;-69
2022/04/13 02:56:18;;;;;;;5.85;2.88;;;12.50;99.90;;;12.68;76.95;100669.34;5229674;28;20143;-68
2022/04/13 02:58:50;;;;;;;6.60;3.00;;;12.40;99.90;;;12.63;77.10;100670.94;5229557;28;20216;-68
2022/04/13 03:01:22;;;;;;;6.10;2.75;;;12.40;99.90;;;12.57;77.45;100670.78;5229209;28;20045;-67
2022/04/13 03:03:55;;;;;;;6.20;2.75;;;12.40;99.90;;;12.54;77.59;100677.69;5229123;28;20061;-68
2022/04/13 03:06:27;;;;;;;4.28;2.50;;;12.30;99.90;;;12.47;77.63;100674.03;5229506;28;20413;-67
2022/04/13 03:09:00;;;;;;;5.72;2.50;;;12.30;99.90;;;12.41;77.81;100674.78;5229505;28;20482;-68
2022/04/13 03:11:32;;;;;;;4.65;2.88;;;12.20;99.90;;;12.38;78.07;100671.19;5229176;28;20049;-68
2022/04/13 03:14:05;;;;;;;4.82;2.80;;;12.10;99.90;;;12.35;78.37;100678.97;5229173;28;20053;-68
2022/04/13 03:16:37;;;;;;;5.05;2.63;;;12.10;99.90;;;12.31;78.36;100677.97;5229456;28;20069;-67
2022/04/13 03:19:09;;;;;;;3.85;2.40;;;12.10;99.90;;;12.27;78.79;100680.50;5229261;28;20055;-67
2022/04/13 03:21:41;;;;;;;7.45;2.70;;;12.00;99.90;;;12.25;79.08;100679.56;5228743;28;20041;-68
2022/04/13 03:24:14;;;;;;;6.20;2.90;;;12.00;99.90;;;12.22;78.90;100668.19;5229076;28;20075;-68
2022/04/13 03:26:46;;;;;;;5.38;2.80;;;12.00;99.90;;;12.20;78.93;100671.63;5228734;28;20053;-67
2022/04/13 03:29:19;;;;;;;5.53;2.80;;;11.90;99.90;;;12.20;79.05;100672.50;5229249;28;20135;-68
2022/04/13 03:31:52;;;;;;;5.90;2.90;;;12.00;99.90;;;12.20;79.06;100675.09;5228369;28;20049;-68
2022/04/13 03:34:24;;;;;;;5.15;2.97;;;11.90;99.90;;;12.22;79.50;100682.97;5228773;28;20088;-68
2022/04/13 03:36:56;;;;;;;3.90;2.42;;;12.00;99.90;;;12.20;79.38;100680.34;5228659;28;20051;-68
2022/04/13 03:39:29;;;;;;;4.60;2.80;;;11.90;99.90;;;12.15;79.33;100687.16;5228578;28;20053;-67
2022/04/13 03:42:02;;;;;;;4.78;2.70;;;11.90;99.90;;;12.09;79.16;100680.88;5228638;28;20502;-67
2022/04/13 03:44:34;;;;;;;6.05;3.03;;;11.80;99.90;;;12.03;79.50;100681.59;5228663;28;20041;-68
2022/04/13 03:47:07;;;;;;;5.22;3.33;;;11.80;99.90;;;12.02;79.60;100684.19;5228960;28;20049;-68
2022/04/13 03:49:39;;;;;;;6.65;3.05;;;11.80;99.90;;;11.99;79.62;100689.31;5228410;28;20071;-67
2022/04/13 03:52:11;;;;;;;6.75;3.50;;;11.70;99.90;;;11.97;79.72;100691.00;5228414;28;20497;-67
2022/04/13 03:54:44;;;;;;;5.90;2.90;;;11.70;99.90;;;11.94;80.01;100691.81;5228459;28;20055;-68
2022/04/13 03:57:16;;;;;;;4.70;2.65;;;11.70;99.90;;;11.91;79.96;100692.59;5228247;28;20045;-68
2022/04/13 03:59:49;;;;;;;4.88;2.85;;;11.70;99.90;;;11.91;80.01;100696.94;5228315;28;20410;-68
2022/04/13 04:02:21;;;;;;;5.43;2.95;;;11.70;99.90;;;11.89;79.94;100698.63;5228048;28;20680;-68
2022/04/13 04:04:53;;;;;;;5.03;3.00;;;11.70;99.90;;;11.85;79.99;100696.75;5227120;28;20056;-68
2022/04/13 04:07:25;;;;;;;6.82;2.85;;;11.60;99.90;;;11.81;79.95;100700.16;5228230;28;20056;-68
2022/04/13 04:09:58;;;;;;;6.63;2.90;;;11.60;99.90;;;11.78;80.24;100700.00;5228240;28;20509;-68
2022/04/13 04:12:30;;;;;;;8.02;2.97;;;11.50;99.90;;;11.76;80.42;100697.38;5227459;28;20504;-68
2022/04/13 04:15:02;;;;;;;7.75;3.25;;;11.50;99.90;;;11.76;80.76;100705.19;5228116;28;20057;-69
2022/04/13 04:17:34;;;;;;;5.35;2.97;;;11.50;99.90;;;11.79;80.46;100704.38;5227932;28;20053;-68
2022/04/13 04:20:09;;;;;;;7.38;2.90;;;11.60;99.90;;;11.76;80.28;100701.72;5227847;28;20057;-68
2022/04/13 04:22:41;;;;;;;5.25;2.90;;;11.50;99.90;;;11.77;80.26;100706.97;5227461;28;20071;-69
2022/04/13 04:25:15;;;;;;;4.90;2.97;;;11.60;99.90;;;11.74;80.07;100708.63;5227983;28;20508;-68
2022/04/13 04:27:47;;;;;;;4.40;2.55;;;11.50;99.90;;;11.68;80.09;100710.22;5227779;28;20502;-69
2022/04/13 04:30:18;;;;;;;5.47;2.95;;;11.50;99.90;;;11.66;80.33;100710.97;5228316;28;20048;-67
2022/04/13 04:32:50;;;;;;;4.97;2.97;;;11.50;99.90;;;11.64;80.40;100717.91;5227842;28;20049;-68
2022/04/13 04:35:22;;;;;;;5.35;3.17;;;11.40;99.90;;;11.63;80.57;100716.13;5227843;28;20056;-67
2022/04/13 04:37:55;;;;;;;5.70;3.13;;;11.40;99.90;;;11.60;80.46;100726.47;5240528;22;20041;-76
2022/04/13 04:40:28;;;;;;;7.45;3.30;;;11.40;99.90;;;11.56;80.72;100722.91;5194970;28;20049;-76
2022/04/13 04:43:00;;;;;;;4.82;2.90;;;11.40;99.90;;;11.54;80.83;100724.59;5185995;28;20045;-76
2022/04/13 04:45:32;;;;;;;4.57;2.65;;;11.40;99.90;;;11.53;81.00;100733.22;5187119;28;20045;-76
2022/04/13 04:48:05;;;;;;;4.38;2.92;;;11.30;99.90;;;11.51;81.38;100727.09;5186794;28;20085;-75
2022/04/13 04:50:37;;;;;;;4.95;3.10;;;11.30;99.90;;;11.49;81.31;100728.78;5187030;28;20056;-76
2022/04/13 04:53:09;;;;;;;6.07;3.60;;;11.30;99.90;;;11.48;81.65;100726.13;5186654;28;20046;-75
2022/04/13 04:55:44;;;;;;;4.85;3.00;;;11.30;99.90;;;11.48;81.75;100732.22;5187105;28;20050;-75
2022/04/13 04:58:16;;;;;;;3.58;2.78;;;11.30;99.90;;;11.46;81.63;100736.50;5186738;28;20058;-76
2022/04/13 05:00:48;;;;;;;5.30;3.08;;;11.30;99.90;;;11.46;81.97;100733.00;5186883;28;20060;-76
2022/04/13 05:03:20;;;;;;;4.80;3.10;;;11.20;99.90;;;11.45;82.04;100736.47;5186352;28;20050;-75
2022/04/13 05:05:52;;;;;;;5.63;3.10;;;11.20;99.90;;;11.47;82.49;100730.44;5186851;28;20414;-76
2022/04/13 05:08:24;;;;;;;7.70;3.00;;;11.20;99.90;;;11.50;82.46;100747.94;5186373;28;20137;-76
2022/04/13 05:10:58;;;;;;;4.72;2.95;;;11.30;99.90;;;11.51;82.45;100745.38;5186515;28;20092;-76
2022/04/13 05:13:30;;;;;;;5.15;3.00;;;11.30;99.90;;;11.56;82.50;100745.50;5186483;28;20449;-76
2022/04/13 05:16:02;;;;;;;6.30;2.90;;;11.30;99.90;;;11.57;82.59;100756.00;5186729;28;20052;-77
2022/04/13 05:18:34;;;;;;;6.28;2.88;;;11.40;99.90;;;11.60;82.58;100747.34;5186654;28;20050;-76
2022/04/13 05:21:07;;;;;;;4.85;2.92;;;11.30;99.90;;;11.63;82.78;100753.56;5186608;28;20493;-77
2022/04/13 05:23:41;;;;;;;4.57;3.20;;;11.40;99.90;;;11.67;82.53;100749.31;5186241;28;20060;-76
2022/04/13 05:26:18;;;;;;;7.20;3.30;;;11.40;99.90;;;11.74;82.47;100756.50;5187171;28;20408;-76
2022/04/13 05:28:50;;;;;;;7.22;3.05;;;11.50;99.90;;;11.82;82.41;100752.41;5186619;28;20045;-76
2022/04/13 05:31:22;;;;;;;4.90;2.85;;;11.60;99.90;;;11.93;82.41;100757.94;5186524;28;20046;-77
2022/04/13 05:33:55;;;;;;;5.03;3.10;;;11.60;99.90;;;12.05;82.06;100758.28;5185796;28;20050;-75
2022/04/13 05:36:28;;;;;;;3.90;2.92;;;11.80;99.90;;;12.21;81.68;100764.84;5186412;28;20472;-75
2022/04/13 05:39:00;;;;;;;5.38;2.75;;;11.90;99.90;;;12.38;81.13;100765.28;5186142;28;20144;-76
2022/04/13 05:41:33;;;;;;;7.82;2.90;;;12.00;99.90;;;12.55;80.52;100766.63;5185826;28;20486;-77
2022/04/13 05:44:05;;;;;;;5.75;3.42;;;12.20;99.90;;;12.75;79.83;100768.03;5186092;28;20410;-76
2022/04/13 05:46:37;;;;;;;10.55;4.13;;;12.30;99.90;;;12.95;78.94;100778.09;5187013;28;20060;-75
2022/04/13 05:49:09;;;;;;;6.10;3.83;;;12.50;99.90;;;13.16;77.74;100780.34;5185883;28;20060;-75
2022/04/13 05:51:41;;;;;;;5.03;3.53;;;12.70;99.90;;;13.39;77.48;100789.69;5185610;28;20069;-76
2022/04/13 05:54:13;;;;;;;7.07;3.97;;;12.90;99.90;;;13.58;76.86;100788.38;5185829;28;20080;-76
2022/04/13 05:56:47;;;;;;;9.90;3.70;;;13.10;99.90;;;13.84;75.79;100797.69;5185747;28;20141;-76
2022/04/13 05:59:19;;;;;;;7.97;4.38;;;13.30;99.90;;;14.36;73.89;100792.63;5185833;28;20049;-73
2022/04/13 06:01:51;;;;;;;7.07;3.97;;;13.60;99.90;;;15.12;71.42;100801.88;5185625;28;20399;-73
2022/04/13 06:04:23;;;;;;;7.13;3.53;;;14.00;99.90;;;15.93;67.78;100805.75;5187051;28;20052;-75
2022/04/13 06:06:55;;;;;;;10.45;6.22;;;14.60;99.90;;;16.70;64.07;100799.66;5185795;28;20085;-72
2022/04/13 06:09:27;;;;;;;13.50;6.95;;;15.20;99.90;;;17.32;60.88;100811.59;5185375;28;20053;-74
2022/04/13 06:12:01;;;;;;;11.10;6.07;;;15.80;99.90;;;17.65;58.46;100810.94;5185628;28;20414;-73
2022/04/13 06:14:33;;;;;;;7.57;4.70;;;16.10;99.80;;;17.67;57.43;100813.59;5185702;28;20136;-74
2022/04/13 06:17:05;;;;;;;7.22;4.15;;;16.40;98.60;;;17.45;57.62;100817.84;5186014;28;20049;-73
2022/04/13 06:19:37;;;;;;;13.10;5.00;;;16.50;97.80;;;17.56;57.55;100822.34;5185186;28;20049;-73
2022/04/13 06:22:09;;;;;;;9.68;4.85;;;16.50;97.70;;;18.11;56.01;100821.78;5184828;28;20083;-72
2022/04/13 06:24:41;;;;;;;8.73;4.10;;;16.80;97.20;;;18.86;53.82;100833.50;5199463;28;20265;-74
2022/04/13 06:27:14;;;;;;;6.68;3.70;;;17.30;96.20;;;19.66;51.57;100829.09;5206529;28;20080;-74
2022/04/13 06:29:46;;;;;;;11.82;5.30;;;17.80;95.00;;;20.27;49.79;100826.25;5214914;28;20045;-70
2022/04/13 06:32:18;;;;;;;8.50;4.60;;;18.30;93.50;;;20.96;47.68;100839.13;5210502;28;20052;-70
2022/04/13 06:34:50;;;;;;;7.07;4.03;;;19.00;91.00;;;21.75;46.01;100847.31;5194914;28;20045;-70
2022/04/13 06:37:22;;;;;;;9.60;3.50;;;19.60;88.50;;;22.36;44.54;100847.53;5204929;28;20059;-68
2022/04/13 06:39:54;;;;;;;7.90;3.95;;;20.20;84.50;;;22.93;42.79;100849.44;5204757;28;20139;-68
2022/04/13 06:42:28;;;;;;;7.47;3.90;;;20.70;80.50;;;23.42;41.01;100852.19;5190685;28;20063;-69
2022/04/13 06:45:00;;;;;;;9.23;3.22;;;21.20;75.70;;;23.88;39.79;100848.72;5214939;28;20049;-69
2022/04/13 06:47:32;;;;;;;7.60;3.70;;;21.70;73.10;;;24.09;38.73;100858.94;5210672;28;20040;-68
2022/04/13 06:50:06;;;;;;;8.73;3.85;;;22.00;69.60;;;24.32;38.42;100860.25;5205563;28;20053;-69
2022/04/13 06:52:39;;;;;;;10.52;3.42;;;22.20;68.40;;;24.58;37.80;100859.75;5204098;28;20120;-69
2022/04/13 06:55:12;;;;;;;11.70;3.28;;;22.50;66.70;;;24.60;37.66;100872.13;5222495;28;20136;-69
2022/04/13 06:57:45;;;;;;;12.05;4.20;;;22.60;65.80;;;24.62;37.99;100870.31;5195044;28;20407;-70
2022/04/13 07:00:18;;;;;;;9.25;3.38;;;22.70;65.70;;;24.69;37.89;100873.72;5201039;28;20045;-68
2022/04/13 07:02:50;;;;;;;7.30;3.03;;;22.90;65.00;;;24.66;37.62;100870.25;5200010;28;20045;-68
2022/04/13 07:05:22;;;;;;;8.05;3.22;;;22.90;64.40;;;24.70;37.42;100871.91;5209276;28;20045;-63
2022/04/13 07:07:55;;;;;;;5.00;2.72;;;22.90;64.10;;;24.83;37.18;100874.28;5210360;28;20136;-64
2022/04/13 07:10:28;;;;;;;5.47;3.35;;;23.10;63.30;;;24.86;36.34;100882.22;5215297;28;20418;-65
2022/04/13 07:13:01;;;;;;;7.90;3.15;;;23.20;62.00;;;24.92;36.21;100885.66;5208492;28;20056;-63
2022/04/13 07:15:33;;;;;;;7.65;3.63;;;23.20;61.60;;;24.98;36.34;100878.41;5207039;28;20391;-66
2022/04/13 07:18:06;;;;;;;7.25;3.03;;;23.20;61.70;;;24.70;36.51;100874.59;5184453;28;20050;-71
2022/04/13 07:20:38;;;;;;;6.63;3.10;;;23.10;60.90;;;24.63;36.96;100880.03;5184813;28;20046;-72
2022/04/13 07:23:10;;;;;;;7.35;3.97;;;23.10;61.80;;;24.80;37.10;100884.16;5184783;28;20410;-75
2022/04/13 07:25:42;;;;;;;9.15;3.70;;;23.10;62.00;;;24.82;36.36;100887.66;5184951;28;20045;-75
2022/04/13 07:28:16;;;;;;;6.68;3.40;;;23.20;61.30;;;25.00;36.56;100884.56;5185088;28;20046;-75
2022/04/13 07:30:48;;;;;;;5.72;3.60;;;23.20;61.80;;;25.24;36.32;100885.81;5184996;28;20140;-75
2022/04/13 07:33:20;;;;;;;9.55;3.40;;;23.40;61.30;;;25.51;35.68;100892.25;5186129;28;20042;-75
2022/04/13 07:35:52;;;;;;;6.88;3.10;;;23.60;60.70;;;25.94;35.06;100905.38;5205800;28;20045;-75
2022/04/13 07:38:24;;;;;;;6.45;3.22;;;23.80;60.10;;;26.44;34.10;100895.09;5206143;28;20520;-75
2022/04/13 07:40:58;;;;;;;8.27;3.70;;;24.20;59.10;;;27.01;33.13;100902.28;5209536;28;20410;-75
2022/04/13 07:43:31;;;;;;;11.30;3.42;;;24.70;58.20;;;27.58;32.30;100896.00;5209045;28;20078;-75
2022/04/13 07:46:03;;;;;;;8.95;3.13;;;25.10;57.40;;;27.97;31.74;100894.66;5209326;28;20056;-74
2022/04/13 07:48:35;;;;;;;8.77;3.50;;;25.40;56.70;;;28.35;31.43;100894.19;5208655;28;20054;-74
2022/04/13 07:51:07;;;;;;;9.73;3.55;;;25.80;56.40;;;28.59;31.16;100894.19;5208682;28;20051;-75
2022/04/13 07:53:40;;;;;;;8.80;3.40;;;25.90;55.80;;;28.97;30.84;100895.44;5208109;28;20064;-75
2022/04/13 07:56:12;;;;;;;9.98;3.88;;;26.20;56.20;;;29.24;30.09;100890.75;5208853;28;20421;-75
2022/04/13 07:58:45;;;;;;;10.25;3.58;;;26.30;55.00;;;29.58;29.74;100894.72;5209411;28;20053;-75
2022/04/13 08:01:17;;;;;;;9.82;3.78;;;26.60;54.80;;;29.66;29.16;100909.56;5208643;28;20474;-75
2022/04/13 08:03:49;;;;;;;7.88;3.13;;;26.70;54.10;;;29.90;28.93;100907.66;5208430;28;20045;-75
2022/04/13 08:06:21;;;;;;;10.63;3.75;;;26.70;54.30;;;30.32;28.73;100913.88;5208453;28;20132;-76
2022/04/13 08:08:53;;;;;;;11.32;3.72;;;26.90;53.80;;;30.59;28.34;100912.66;5208478;28;20061;-75
2022/04/13 08:11:26;;;;;;;9.57;3.60;;;27.20;53.40;;;31.11;27.64;100918.28;5208639;28;20524;-76
2022/04/13 08:13:59;;;;;;;8.55;3.47;;;27.50;53.20;;;31.50;27.21;100920.84;5208129;28;20057;-66
2022/04/13 08:16:32;;;;;;;8.93;3.60;;;27.90;52.40;;;31.65;26.94;100919.19;5207983;28;20053;-65
2022/04/13 08:19:05;;;;;;;11.57;3.85;;;28.10;51.90;;;31.68;27.36;100934.31;5208114;28;20060;-65
2022/04/13 08:21:38;;;;;;;8.60;3.10;;;28.30;52.20;;;31.39;27.92;100939.34;5207986;28;20049;-67
2022/04/13 08:24:10;;;;;;;9.88;3.53;;;28.10;52.30;;;31.08;28.01;100939.94;5208178;28;20045;-65
2022/04/13 08:26:43;;;;;;;7.88;3.35;;;27.90;52.20;;;31.31;28.51;100938.88;5208240;28;20055;-66
2022/04/13 08:29:16;;;;;;;8.63;3.80;;;28.00;53.70;;;31.66;27.95;100929.00;5208158;28;20049;-67
2022/04/13 08:31:48;;;;;;;8.20;3.45;;;28.20;53.00;;;32.01;27.92;100939.81;5207949;28;20049;-68
2022/04/13 08:34:20;;;;;;;9.00;4.15;;;28.50;53.00;;;32.21;27.50;100930.69;5207655;28;20046;-68
2022/04/13 08:36:52;;;;;;;11.85;4.18;;;28.70;52.40;;;32.19;27.07;100932.59;5207981;28;20072;-67
2022/04/13 08:39:24;;;;;;;10.88;3.78;;;28.70;51.70;;;32.24;27.38;100938.63;5207520;28;20053;-67
2022/04/13 08:41:59;;;;;;;12.43;4.50;;;28.80;52.10;;;32.34;27.59;100937.19;5207752;28;20050;-67
2022/04/13 08:44:45;;;;;;;10.77;4.60;;;28.90;52.50;;;32.35;27.38;100944.34;5207542;28;20049;-66
2022/04/13 08:47:20;;;;;;;12.45;4.60;;;28.90;52.00;;;32.19;27.83;100946.09;5208070;28;20136;-66
2022/04/13 08:49:53;;;;;;;11.20;4.80;;;28.90;52.30;;;31.99;27.92;100950.69;5207769;28;20391;-67
2022/04/13 08:52:29;;;;;;;;;;;28.70;52.20;;;32.05;27.67;100952.19;5207171;28;20055;-65
2022/04/13 08:55:09;;;;;;;9.52;4.30;;;28.70;51.80;;;32.00;27.35;100951.56;5207791;28;20019;-66
2022/04/13 08:57:47;;;;;;;9.90;4.40;;;28.70;51.50;;;31.69;28.30;100963.00;5207932;28;20401;-67
2022/04/13 09:00:22;;;;;;;10.98;4.70;;;28.50;52.10;;;31.48;28.50;100949.66;5207097;28;20059;-66
2022/04/13 09:03:21;;;;;;;11.68;4.65;;;28.40;52.40;;;31.40;28.79;100954.56;5207689;28;20069;-65
2022/04/13 09:05:58;;;;;;;15.27;4.68;;;28.40;52.70;;;31.27;29.04;100962.38;5207147;28;20057;-67
2022/04/13 09:08:37;;;;;;;13.20;4.95;;;28.30;52.60;;;31.10;29.67;100969.47;5206999;28;20077;-67
2022/04/13 09:11:09;;;;;;;11.45;4.85;;;28.30;53.10;;;30.84;29.44;100971.56;5207341;28;20045;-65
2022/04/13 09:13:44;;;;;;;11.73;5.40;;;28.20;52.80;;;30.58;29.92;100961.13;5207333;28;20052;-65
2022/04/13 09:16:18;;;;;;;12.73;5.28;;;28.20;52.90;;;30.19;30.55;100964.66;5207566;28;20053;-68
2022/04/13 09:18:50;;;;;;;11.80;5.25;;;28.10;52.90;;;29.84;30.73;100969.72;5207275;28;20509;-67
2022/04/13 09:21:23;;;;;;;15.90;5.75;;;28.00;53.20;;;29.36;31.49;100968.09;5207146;28;20137;-67
2022/04/13 09:23:55;;;;;;;11.10;5.50;;;27.80;53.00;;;28.94;32.38;100965.28;5207270;28;20479;-66
2022/04/13 09:26:28;;;;;;;9.23;4.88;;;27.60;53.70;;;28.37;33.26;100959.38;5207407;28;20049;-67
2022/04/13 09:29:01;;;;;;;14.40;5.80;;;27.20;53.70;;;27.91;33.72;100959.19;5207080;28;20401;-65
2022/04/13 09:31:36;;;;;;;10.23;5.40;;;26.80;54.20;;;27.47;34.50;100957.03;5207072;28;20055;-66
2022/04/13 09:34:09;;;;;;;9.73;5.05;;;26.50;54.80;;;27.16;35.76;100954.47;5207123;28;20441;-65
2022/04/13 09:36:42;;;;;;;13.05;5.10;;;26.20;56.30;;;27.10;36.82;100954.66;5206770;28;20052;-66
2022/04/13 09:39:16;;;;;;;7.15;3.88;;;26.10;57.40;;;27.22;36.93;100956.97;5206722;28;20487;-67
2022/04/13 09:41:48;;;;;;;13.30;5.20;;;26.10;58.00;;;27.38;36.16;100948.44;5206925;28;20049;-65
2022/04/13 09:44:20;;;;;;;12.32;5.13;;;26.10;57.40;;;27.35;35.99;100952.09;5206617;28;20041;-66
2022/04/13 09:46:53;;;;;;;11.65;5.15;;;26.10;57.10;;;27.14;36.16;100950.97;5206641;28;20546;-65
2022/04/13 09:49:25;;;;;;;10.93;4.70;;;26.00;57.00;;;26.99;36.93;100951.41;5206656;28;20455;-67
2022/04/13 09:51:57;;;;;;;9.15;4.28;;;25.90;57.90;;;27.01;36.96;100954.91;5206516;28;20053;-65
2022/04/13 09:54:29;;;;;;;12.57;4.93;;;25.80;58.10;;;27.07;37.42;100954.75;5206590;28;20045;-65
2022/04/13 09:57:01;;;;;;;11.15;4.97;;;25.80;58.60;;;27.00;36.67;100946.03;5206261;28;20049;-66
2022/04/13 09:59:33;;;;;;;9.50;4.07;;;25.80;57.90;;;26.84;37.09;100939.38;5206332;28;20500;-65
2022/04/13 10:02:07;;;;;;;11.20;4.18;;;25.70;58.10;;;26.53;37.05;100942.06;5205469;28;20060;-64
2022/04/13 10:04:39;;;;;;;;;;;25.50;57.90;;;26.35;37.12;100942.59;5204180;28;20049;-64
2022/04/13 10:07:17;;;;;;;12.18;4.18;;;25.30;57.70;;;26.34;37.15;100940.81;5206199;28;19960;-67
2022/04/13 10:09:49;;;;;;;11.07;3.80;;;25.30;58.00;;;26.12;37.69;100941.41;5205759;28;20525;-67
2022/04/13 10:12:21;;;;;;;9.60;4.28;;;25.10;58.40;;;25.96;38.17;100942.75;5205358;28;20045;-65
2022/04/13 10:14:53;;;;;;;12.27;4.47;;;25.00;58.90;;;25.82;38.63;100943.13;5206176;28;20049;-66
2022/04/13 10:17:34;;;;;;;11.73;3.90;;;24.80;59.10;;;25.57;39.02;100942.81;5205801;28;20396;-67
2022/04/13 10:20:08;;;;;;;13.38;4.30;;;24.70;59.90;;;25.31;39.14;100951.44;5205772;28;20057;-65
2022/04/13 10:22:59;;;;;;;11.10;3.67;;;24.40;59.40;;;25.04;40.17;100942.28;5205433;28;20374;-66
2022/04/13 10:25:31;;;;;;;6.47;3.35;;;24.20;60.40;;;24.97;40.16;100948.63;5205541;28;20080;-65
2022/04/13 10:28:03;;;;;;;16.40;3.88;;;24.10;60.60;;;24.92;40.29;100934.53;5205512;28;20084;-65
2022/04/13 10:30:38;;;;;;;9.45;3.47;;;24.00;60.70;;;24.89;40.18;100943.47;5205427;28;20053;-65
2022/04/13 10:33:13;;;;;;;7.70;3.00;;;24.00;61.00;;;24.82;40.82;100943.63;5204912;28;20052;-65
2022/04/13 10:35:46;;;;;;;7.47;2.80;;;23.90;61.40;;;24.56;40.25;100945.06;5205402;28;20049;-66